sensor_id;sensor_type;location;lat;lon;timestamp;pressure;altitude;pressure_sealevel;temperature;humidity
71109;BME280;59614;51.012;-1.648;2023-03-05T00:01:46;101763.47;;;3.49;68.64
71109;BME280;59614;51.012;-1.648;2023-03-05T00:04:14;101760.63;;;3.42;68.48
71109;BME280;59614;51.012;-1.648;2023-03-05T00:06:39;101748.47;;;3.42;68.79
71109;BME280;59614;51.012;-1.648;2023-03-05T00:09:05;101755.34;;;3.40;68.54
71109;BME280;59614;51.012;-1.648;2023-03-05T00:11:31;101759.88;;;3.46;68.96
71109;BME280;59614;51.012;-1.648;2023-03-05T00:13:58;101755.66;;;3.49;68.30
71109;BME280;59614;51.012;-1.648;2023-03-05T00:16:24;101748.84;;;3.29;68.59
71109;BME280;59614;51.012;-1.648;2023-03-05T00:18:57;101752.81;;;3.42;69.22
71109;BME280;59614;51.012;-1.648;2023-03-05T00:21:33;101746.69;;;3.41;68.84
71109;BME280;59614;51.012;-1.648;2023-03-05T00:24:01;101749.09;;;3.35;68.72
71109;BME280;59614;51.012;-1.648;2023-03-05T00:26:27;101757.91;;;3.38;68.94
71109;BME280;59614;51.012;-1.648;2023-03-05T00:28:54;101751.06;;;3.42;68.67
71109;BME280;59614;51.012;-1.648;2023-03-05T00:31:24;101754.47;;;3.39;68.27
71109;BME280;59614;51.012;-1.648;2023-03-05T00:33:54;101748.47;;;3.42;69.12
71109;BME280;59614;51.012;-1.648;2023-03-05T00:36:20;101741.47;;;3.41;68.11
71109;BME280;59614;51.012;-1.648;2023-03-05T00:38:46;101738.72;;;3.38;68.54
71109;BME280;59614;51.012;-1.648;2023-03-05T00:41:12;101724.06;;;3.16;68.20
71109;BME280;59614;51.012;-1.648;2023-03-05T00:43:37;101725.63;;;3.11;67.90
71109;BME280;59614;51.012;-1.648;2023-03-05T00:46:03;101732.16;;;3.23;69.01
71109;BME280;59614;51.012;-1.648;2023-03-05T00:48:28;101736.41;;;3.20;68.46
71109;BME280;59614;51.012;-1.648;2023-03-05T00:50:54;101739.31;;;3.29;68.24
71109;BME280;59614;51.012;-1.648;2023-03-05T00:53:19;101736.66;;;3.28;67.86
71109;BME280;59614;51.012;-1.648;2023-03-05T00:55:45;101730.00;;;3.36;68.17
71109;BME280;59614;51.012;-1.648;2023-03-05T00:58:10;101736.13;;;3.38;68.29
71109;BME280;59614;51.012;-1.648;2023-03-05T01:00:36;101730.59;;;3.29;67.96
71109;BME280;59614;51.012;-1.648;2023-03-05T01:03:01;101728.94;;;3.31;68.41
71109;BME280;59614;51.012;-1.648;2023-03-05T01:05:27;101729.72;;;3.28;68.21
71109;BME280;59614;51.012;-1.648;2023-03-05T01:07:54;101723.09;;;3.12;68.14
71109;BME280;59614;51.012;-1.648;2023-03-05T01:10:21;101720.84;;;3.23;67.85
71109;BME280;59614;51.012;-1.648;2023-03-05T01:12:47;101724.22;;;3.20;68.45
71109;BME280;59614;51.012;-1.648;2023-03-05T01:15:13;101714.19;;;3.07;69.02
71109;BME280;59614;51.012;-1.648;2023-03-05T01:17:38;101705.41;;;3.05;68.02
71109;BME280;59614;51.012;-1.648;2023-03-05T01:20:04;101712.53;;;3.09;68.50
71109;BME280;59614;51.012;-1.648;2023-03-05T01:22:30;101707.63;;;3.18;68.29
71109;BME280;59614;51.012;-1.648;2023-03-05T01:24:55;101703.69;;;3.04;68.82
71109;BME280;59614;51.012;-1.648;2023-03-05T01:27:21;101705.78;;;3.14;68.53
71109;BME280;59614;51.012;-1.648;2023-03-05T01:29:47;101692.66;;;3.13;68.61
71109;BME280;59614;51.012;-1.648;2023-03-05T01:32:13;101687.53;;;3.16;68.08
71109;BME280;59614;51.012;-1.648;2023-03-05T01:34:38;101692.56;;;3.09;68.03
71109;BME280;59614;51.012;-1.648;2023-03-05T01:37:06;101683.88;;;3.11;67.90
71109;BME280;59614;51.012;-1.648;2023-03-05T01:39:32;101687.44;;;3.13;68.67
71109;BME280;59614;51.012;-1.648;2023-03-05T01:41:57;101677.16;;;3.17;67.91
71109;BME280;59614;51.012;-1.648;2023-03-05T01:44:25;101665.69;;;3.12;68.65
71109;BME280;59614;51.012;-1.648;2023-03-05T01:46:51;101660.94;;;3.00;68.71
71109;BME280;59614;51.012;-1.648;2023-03-05T01:49:36;101658.47;;;3.05;68.71
71109;BME280;59614;51.012;-1.648;2023-03-05T01:52:10;101660.59;;;3.15;68.62
71109;BME280;59614;51.012;-1.648;2023-03-05T01:54:57;101651.81;;;3.13;69.07
71109;BME280;59614;51.012;-1.648;2023-03-05T01:59:58;101653.72;;;2.93;68.19
71109;BME280;59614;51.012;-1.648;2023-03-05T02:02:25;101645.88;;;2.91;67.79
71109;BME280;59614;51.012;-1.648;2023-03-05T02:04:54;101645.88;;;2.91;68.10
71109;BME280;59614;51.012;-1.648;2023-03-05T02:07:23;101635.22;;;3.11;68.80
71109;BME280;59614;51.012;-1.648;2023-03-05T02:09:48;101639.97;;;2.97;68.68
71109;BME280;59614;51.012;-1.648;2023-03-05T02:12:14;101634.16;;;3.06;69.04
71109;BME280;59614;51.012;-1.648;2023-03-05T02:14:42;101636.06;;;3.10;68.85
71109;BME280;59614;51.012;-1.648;2023-03-05T02:17:09;101623.72;;;3.06;68.13
71109;BME280;59614;51.012;-1.648;2023-03-05T02:22:19;101620.66;;;2.92;68.31
71109;BME280;59614;51.012;-1.648;2023-03-05T02:24:45;101619.88;;;2.94;68.36
71109;BME280;59614;51.012;-1.648;2023-03-05T02:27:12;101618.09;;;2.93;69.02
71109;BME280;59614;51.012;-1.648;2023-03-05T02:29:41;101616.44;;;2.96;69.51
71109;BME280;59614;51.012;-1.648;2023-03-05T02:32:07;101613.56;;;2.88;69.25
71109;BME280;59614;51.012;-1.648;2023-03-05T02:34:34;101603.72;;;2.79;68.79
71109;BME280;59614;51.012;-1.648;2023-03-05T02:36:59;101600.06;;;2.74;69.23
71109;BME280;59614;51.012;-1.648;2023-03-05T02:39:26;101601.47;;;2.90;69.12
71109;BME280;59614;51.012;-1.648;2023-03-05T02:41:52;101598.28;;;2.73;68.83
71109;BME280;59614;51.012;-1.648;2023-03-05T02:44:17;101593.28;;;2.79;69.10
71109;BME280;59614;51.012;-1.648;2023-03-05T02:46:43;101585.97;;;2.94;68.79
71109;BME280;59614;51.012;-1.648;2023-03-05T02:49:08;101580.66;;;2.91;68.51
71109;BME280;59614;51.012;-1.648;2023-03-05T02:51:34;101573.88;;;2.97;68.65
71109;BME280;59614;51.012;-1.648;2023-03-05T02:53:59;101578.41;;;3.02;68.58
71109;BME280;59614;51.012;-1.648;2023-03-05T02:56:24;101572.25;;;3.00;69.36
71109;BME280;59614;51.012;-1.648;2023-03-05T02:58:50;101572.56;;;3.09;69.13
71109;BME280;59614;51.012;-1.648;2023-03-05T03:01:15;101561.91;;;3.03;69.04
71109;BME280;59614;51.012;-1.648;2023-03-05T03:03:41;101574.97;;;3.03;69.35
71109;BME280;59614;51.012;-1.648;2023-03-05T03:06:06;101572.47;;;3.06;69.11
71109;BME280;59614;51.012;-1.648;2023-03-05T03:08:32;101553.84;;;2.96;68.53
71109;BME280;59614;51.012;-1.648;2023-03-05T03:11:06;101556.56;;;2.99;69.11
71109;BME280;59614;51.012;-1.648;2023-03-05T03:13:32;101547.91;;;3.00;68.48
71109;BME280;59614;51.012;-1.648;2023-03-05T03:16:10;101542.66;;;2.98;68.17
71109;BME280;59614;51.012;-1.648;2023-03-05T03:18:35;101539.66;;;2.87;68.82
71109;BME280;59614;51.012;-1.648;2023-03-05T03:21:01;101538.72;;;2.85;68.82
71109;BME280;59614;51.012;-1.648;2023-03-05T03:23:27;101533.31;;;2.79;68.91
71109;BME280;59614;51.012;-1.648;2023-03-05T03:25:53;101533.72;;;2.91;68.99
71109;BME280;59614;51.012;-1.648;2023-03-05T03:28:18;101531.69;;;2.83;68.47
71109;BME280;59614;51.012;-1.648;2023-03-05T03:30:44;101519.53;;;2.83;68.58
71109;BME280;59614;51.012;-1.648;2023-03-05T03:33:09;101527.06;;;2.74;68.67
71109;BME280;59614;51.012;-1.648;2023-03-05T03:35:35;101525.69;;;2.85;69.00
71109;BME280;59614;51.012;-1.648;2023-03-05T03:38:00;101526.19;;;2.73;68.35
71109;BME280;59614;51.012;-1.648;2023-03-05T03:40:26;101525.13;;;2.68;68.72
71109;BME280;59614;51.012;-1.648;2023-03-05T03:42:52;101529.41;;;2.66;68.57
71109;BME280;59614;51.012;-1.648;2023-03-05T03:45:18;101525.41;;;2.76;68.47
71109;BME280;59614;51.012;-1.648;2023-03-05T03:47:47;101510.13;;;2.61;69.08
71109;BME280;59614;51.012;-1.648;2023-03-05T03:50:12;101516.13;;;2.58;68.92
71109;BME280;59614;51.012;-1.648;2023-03-05T03:52:38;101517.19;;;2.65;69.02
71109;BME280;59614;51.012;-1.648;2023-03-05T03:55:04;101512.78;;;2.62;69.38
71109;BME280;59614;51.012;-1.648;2023-03-05T03:57:29;101513.97;;;2.72;69.09
71109;BME280;59614;51.012;-1.648;2023-03-05T03:59:55;101504.28;;;2.68;69.06
71109;BME280;59614;51.012;-1.648;2023-03-05T04:02:21;101492.34;;;2.75;68.81
71109;BME280;59614;51.012;-1.648;2023-03-05T04:04:46;101501.78;;;2.71;69.21
71109;BME280;59614;51.012;-1.648;2023-03-05T04:07:12;101503.25;;;2.63;69.62
71109;BME280;59614;51.012;-1.648;2023-03-05T04:09:37;101493.81;;;2.67;69.50
71109;BME280;59614;51.012;-1.648;2023-03-05T04:12:03;101492.75;;;2.61;69.25
71109;BME280;59614;51.012;-1.648;2023-03-05T04:14:28;101481.75;;;2.70;69.49
71109;BME280;59614;51.012;-1.648;2023-03-05T04:16:54;101483.38;;;2.67;69.96
71109;BME280;59614;51.012;-1.648;2023-03-05T04:19:19;101483.09;;;2.57;69.06
71109;BME280;59614;51.012;-1.648;2023-03-05T04:21:45;101484.25;;;2.67;69.30
71109;BME280;59614;51.012;-1.648;2023-03-05T04:24:10;101475.41;;;2.62;69.30
71109;BME280;59614;51.012;-1.648;2023-03-05T04:26:36;101477.75;;;2.54;69.38
71109;BME280;59614;51.012;-1.648;2023-03-05T04:29:01;101479.38;;;2.51;69.76
71109;BME280;59614;51.012;-1.648;2023-03-05T04:31:27;101477.03;;;2.58;69.51
71109;BME280;59614;51.012;-1.648;2023-03-05T04:33:52;101470.78;;;2.53;69.33
71109;BME280;59614;51.012;-1.648;2023-03-05T04:36:18;101462.31;;;2.60;69.46
71109;BME280;59614;51.012;-1.648;2023-03-05T04:38:43;101457.22;;;2.63;69.23
71109;BME280;59614;51.012;-1.648;2023-03-05T04:41:09;101465.75;;;2.59;68.83
71109;BME280;59614;51.012;-1.648;2023-03-05T04:43:34;101454.00;;;2.45;69.13
71109;BME280;59614;51.012;-1.648;2023-03-05T04:46:00;101459.63;;;2.57;69.02
71109;BME280;59614;51.012;-1.648;2023-03-05T04:48:25;101455.94;;;2.51;68.88
71109;BME280;59614;51.012;-1.648;2023-03-05T04:50:51;101458.56;;;2.52;69.51
71109;BME280;59614;51.012;-1.648;2023-03-05T04:53:16;101458.19;;;2.67;68.63
71109;BME280;59614;51.012;-1.648;2023-03-05T04:55:42;101449.38;;;2.63;68.92
71109;BME280;59614;51.012;-1.648;2023-03-05T04:58:07;101450.88;;;2.55;68.46
71109;BME280;59614;51.012;-1.648;2023-03-05T05:00:33;101449.19;;;2.57;69.11
71109;BME280;59614;51.012;-1.648;2023-03-05T05:02:58;101441.56;;;2.63;69.64
71109;BME280;59614;51.012;-1.648;2023-03-05T05:05:25;101444.91;;;2.59;69.56
71109;BME280;59614;51.012;-1.648;2023-03-05T05:07:55;101444.22;;;2.65;68.87
71109;BME280;59614;51.012;-1.648;2023-03-05T05:10:22;101447.47;;;2.58;69.01
71109;BME280;59614;51.012;-1.648;2023-03-05T05:12:47;101448.38;;;2.58;69.28
71109;BME280;59614;51.012;-1.648;2023-03-05T05:15:13;101435.63;;;2.68;69.00
71109;BME280;59614;51.012;-1.648;2023-03-05T05:17:38;101436.78;;;2.50;69.46
71109;BME280;59614;51.012;-1.648;2023-03-05T05:20:04;101428.34;;;2.57;69.57
71109;BME280;59614;51.012;-1.648;2023-03-05T05:22:31;101431.41;;;2.45;69.12
71109;BME280;59614;51.012;-1.648;2023-03-05T05:24:57;101422.88;;;2.50;69.62
71109;BME280;59614;51.012;-1.648;2023-03-05T05:27:22;101424.72;;;2.54;69.27
71109;BME280;59614;51.012;-1.648;2023-03-05T05:29:48;101410.56;;;2.45;69.25
71109;BME280;59614;51.012;-1.648;2023-03-05T05:32:18;101406.16;;;2.43;69.65
71109;BME280;59614;51.012;-1.648;2023-03-05T05:34:44;101422.38;;;2.34;69.31
71109;BME280;59614;51.012;-1.648;2023-03-05T05:37:09;101412.50;;;2.25;69.61
71109;BME280;59614;51.012;-1.648;2023-03-05T05:39:35;101417.94;;;2.31;69.39
71109;BME280;59614;51.012;-1.648;2023-03-05T05:42:00;101412.00;;;2.36;69.25
71109;BME280;59614;51.012;-1.648;2023-03-05T05:44:26;101411.16;;;2.37;69.25
71109;BME280;59614;51.012;-1.648;2023-03-05T05:46:51;101406.53;;;2.28;69.52
71109;BME280;59614;51.012;-1.648;2023-03-05T05:49:17;101412.63;;;2.28;69.14
71109;BME280;59614;51.012;-1.648;2023-03-05T05:51:42;101405.63;;;2.27;69.47
71109;BME280;59614;51.012;-1.648;2023-03-05T05:54:11;101402.50;;;2.38;69.13
71109;BME280;59614;51.012;-1.648;2023-03-05T05:56:37;101393.97;;;2.42;68.75
71109;BME280;59614;51.012;-1.648;2023-03-05T05:59:02;101389.53;;;2.39;69.02
71109;BME280;59614;51.012;-1.648;2023-03-05T06:01:31;101385.56;;;2.23;68.03
71109;BME280;59614;51.012;-1.648;2023-03-05T06:03:57;101395.22;;;2.27;68.11
71109;BME280;59614;51.012;-1.648;2023-03-05T06:06:24;101402.44;;;2.35;67.92
71109;BME280;59614;51.012;-1.648;2023-03-05T06:08:50;101394.53;;;2.33;67.66
71109;BME280;59614;51.012;-1.648;2023-03-05T06:11:17;101394.06;;;2.45;67.81
71109;BME280;59614;51.012;-1.648;2023-03-05T06:13:44;101388.03;;;2.46;66.79
71109;BME280;59614;51.012;-1.648;2023-03-05T06:16:13;101393.84;;;2.39;66.44
71109;BME280;59614;51.012;-1.648;2023-03-05T06:18:38;101385.34;;;2.44;65.64
71109;BME280;59614;51.012;-1.648;2023-03-05T06:21:10;101385.59;;;2.52;65.50
71109;BME280;59614;51.012;-1.648;2023-03-05T06:23:35;101384.13;;;2.60;65.89
71109;BME280;59614;51.012;-1.648;2023-03-05T06:26:03;101382.31;;;2.58;66.35
71109;BME280;59614;51.012;-1.648;2023-03-05T06:28:30;101392.31;;;2.44;65.88
71109;BME280;59614;51.012;-1.648;2023-03-05T06:31:07;101386.09;;;2.68;65.15
71109;BME280;59614;51.012;-1.648;2023-03-05T06:33:33;101380.88;;;2.68;64.66
71109;BME280;59614;51.012;-1.648;2023-03-05T06:35:59;101382.16;;;2.81;65.78
71109;BME280;59614;51.012;-1.648;2023-03-05T06:38:26;101385.00;;;2.88;65.39
71109;BME280;59614;51.012;-1.648;2023-03-05T06:40:51;101375.25;;;2.83;66.76
71109;BME280;59614;51.012;-1.648;2023-03-05T06:43:17;101376.06;;;2.80;66.82
71109;BME280;59614;51.012;-1.648;2023-03-05T06:45:42;101377.84;;;2.81;66.36
71109;BME280;59614;51.012;-1.648;2023-03-05T06:48:08;101375.25;;;2.83;67.09
71109;BME280;59614;51.012;-1.648;2023-03-05T06:50:34;101376.13;;;2.83;66.04
71109;BME280;59614;51.012;-1.648;2023-03-05T06:53:00;101381.44;;;2.86;65.67
71109;BME280;59614;51.012;-1.648;2023-03-05T06:55:26;101376.13;;;2.83;66.86
71109;BME280;59614;51.012;-1.648;2023-03-05T06:57:51;101378.75;;;2.83;66.77
71109;BME280;59614;51.012;-1.648;2023-03-05T07:00:17;101376.13;;;2.83;66.36
71109;BME280;59614;51.012;-1.648;2023-03-05T07:02:42;101376.97;;;2.82;66.32
71109;BME280;59614;51.012;-1.648;2023-03-05T07:05:08;101370.31;;;2.92;66.48
71109;BME280;59614;51.012;-1.648;2023-03-05T07:07:33;101371.22;;;2.92;65.84
71109;BME280;59614;51.012;-1.648;2023-03-05T07:09:59;101369.34;;;2.88;66.67
71109;BME280;59614;51.012;-1.648;2023-03-05T07:12:25;101362.53;;;2.93;67.59
71109;BME280;59614;51.012;-1.648;2023-03-05T07:14:50;101358.44;;;3.02;68.07
71109;BME280;59614;51.012;-1.648;2023-03-05T07:17:16;101365.38;;;3.01;66.94
71109;BME280;59614;51.012;-1.648;2023-03-05T07:19:42;101359.19;;;2.98;66.56
71109;BME280;59614;51.012;-1.648;2023-03-05T07:22:08;101355.75;;;2.99;68.05
71109;BME280;59614;51.012;-1.648;2023-03-05T07:24:34;101352.19;;;2.97;68.30
71109;BME280;59614;51.012;-1.648;2023-03-05T07:26:59;101364.03;;;2.85;68.66
71109;BME280;59614;51.012;-1.648;2023-03-05T07:29:26;101347.78;;;2.94;68.82
71109;BME280;59614;51.012;-1.648;2023-03-05T07:31:53;101351.81;;;3.13;68.08
71109;BME280;59614;51.012;-1.648;2023-03-05T07:34:19;101348.09;;;3.05;66.51
71109;BME280;59614;51.012;-1.648;2023-03-05T07:36:45;101347.91;;;2.99;66.10
71109;BME280;59614;51.012;-1.648;2023-03-05T07:39:11;101351.25;;;2.94;66.26
71109;BME280;59614;51.012;-1.648;2023-03-05T07:41:38;101354.72;;;2.93;65.92
71109;BME280;59614;51.012;-1.648;2023-03-05T07:44:03;101350.06;;;3.12;66.82
71109;BME280;59614;51.012;-1.648;2023-03-05T07:46:32;101352.44;;;3.35;66.86
71109;BME280;59614;51.012;-1.648;2023-03-05T07:48:58;101354.09;;;3.31;66.17
71109;BME280;59614;51.012;-1.648;2023-03-05T07:51:24;101347.16;;;3.33;65.55
71109;BME280;59614;51.012;-1.648;2023-03-05T07:53:52;101345.78;;;3.46;65.51
71109;BME280;59614;51.012;-1.648;2023-03-05T07:56:22;101352.00;;;3.51;65.55
71109;BME280;59614;51.012;-1.648;2023-03-05T07:58:48;101349.41;;;3.51;65.18
71109;BME280;59614;51.012;-1.648;2023-03-05T08:01:14;101347.50;;;3.46;63.78
71109;BME280;59614;51.012;-1.648;2023-03-05T08:03:41;101346.38;;;3.36;65.17
71109;BME280;59614;51.012;-1.648;2023-03-05T08:06:07;101357.19;;;3.18;65.45
71109;BME280;59614;51.012;-1.648;2023-03-05T08:08:33;101356.53;;;3.27;65.71
71109;BME280;59614;51.012;-1.648;2023-03-05T08:11:13;101352.66;;;3.12;65.62
71109;BME280;59614;51.012;-1.648;2023-03-05T08:13:38;101350.22;;;3.18;65.54
71109;BME280;59614;51.012;-1.648;2023-03-05T08:16:10;101350.28;;;3.20;66.93
71109;BME280;59614;51.012;-1.648;2023-03-05T08:18:36;101355.66;;;3.26;65.66
71109;BME280;59614;51.012;-1.648;2023-03-05T08:21:01;101345.19;;;3.24;64.80
71109;BME280;59614;51.012;-1.648;2023-03-05T08:23:27;101345.13;;;3.23;64.90
71109;BME280;59614;51.012;-1.648;2023-03-05T08:25:53;101352.56;;;3.09;64.97
71109;BME280;59614;51.012;-1.648;2023-03-05T08:28:19;101346.63;;;3.13;65.68
71109;BME280;59614;51.012;-1.648;2023-03-05T08:30:46;101347.97;;;3.31;66.03
71109;BME280;59614;51.012;-1.648;2023-03-05T08:33:11;101343.91;;;3.40;66.27
71109;BME280;59614;51.012;-1.648;2023-03-05T08:35:37;101346.72;;;3.48;66.27
71109;BME280;59614;51.012;-1.648;2023-03-05T08:38:03;101348.31;;;3.43;64.73
71109;BME280;59614;51.012;-1.648;2023-03-05T08:40:29;101343.25;;;3.49;65.30
71109;BME280;59614;51.012;-1.648;2023-03-05T08:42:56;101351.03;;;3.48;64.56
71109;BME280;59614;51.012;-1.648;2023-03-05T08:45:21;101343.78;;;3.36;64.91
71109;BME280;59614;51.012;-1.648;2023-03-05T08:47:47;101351.84;;;3.15;65.88
71109;BME280;59614;51.012;-1.648;2023-03-05T08:50:13;101339.91;;;3.23;66.79
71109;BME280;59614;51.012;-1.648;2023-03-05T08:52:38;101340.16;;;3.32;66.97
71109;BME280;59614;51.012;-1.648;2023-03-05T08:55:04;101339.19;;;3.29;66.22
71109;BME280;59614;51.012;-1.648;2023-03-05T08:57:29;101336.25;;;3.16;66.47
71109;BME280;59614;51.012;-1.648;2023-03-05T08:59:55;101334.88;;;3.29;67.73
71109;BME280;59614;51.012;-1.648;2023-03-05T09:02:20;101334.28;;;3.39;67.55
71109;BME280;59614;51.012;-1.648;2023-03-05T09:04:45;101328.31;;;3.44;67.62
71109;BME280;59614;51.012;-1.648;2023-03-05T09:07:11;101329.44;;;3.53;67.03
71109;BME280;59614;51.012;-1.648;2023-03-05T09:09:37;101327.94;;;3.30;68.71
71109;BME280;59614;51.012;-1.648;2023-03-05T09:12:02;101319.84;;;3.20;69.39
71109;BME280;59614;51.012;-1.648;2023-03-05T09:14:28;101328.00;;;3.01;68.72
71109;BME280;59614;51.012;-1.648;2023-03-05T09:16:54;101323.97;;;3.12;68.81
71109;BME280;59614;51.012;-1.648;2023-03-05T09:19:20;101319.22;;;3.29;68.25
71109;BME280;59614;51.012;-1.648;2023-03-05T09:21:46;101315.94;;;3.06;68.83
71109;BME280;59614;51.012;-1.648;2023-03-05T09:24:11;101318.25;;;3.26;68.84
71109;BME280;59614;51.012;-1.648;2023-03-05T09:26:37;101310.69;;;3.35;68.59
71109;BME280;59614;51.012;-1.648;2023-03-05T09:29:03;101305.47;;;3.35;68.94
71109;BME280;59614;51.012;-1.648;2023-03-05T09:31:30;101317.72;;;3.37;68.94
71109;BME280;59614;51.012;-1.648;2023-03-05T09:33:56;101311.28;;;3.24;68.17
71109;BME280;59614;51.012;-1.648;2023-03-05T09:36:24;101314.47;;;3.14;68.71
71109;BME280;59614;51.012;-1.648;2023-03-05T09:38:50;101305.38;;;3.32;68.42
71109;BME280;59614;51.012;-1.648;2023-03-05T09:46:42;101296.41;;;3.22;66.25
71109;BME280;59614;51.012;-1.648;2023-03-05T09:52:19;101285.53;;;3.37;66.57
71109;BME280;59614;51.012;-1.648;2023-03-05T09:54:48;101287.34;;;3.41;66.50
71109;BME280;59614;51.012;-1.648;2023-03-05T09:57:21;101283.41;;;3.57;66.37
71109;BME280;59614;51.012;-1.648;2023-03-05T10:00:33;101286.88;;;3.56;66.69
71109;BME280;59614;51.012;-1.648;2023-03-05T10:03:04;101270.00;;;3.43;66.72
71109;BME280;59614;51.012;-1.648;2023-03-05T10:08:36;101271.31;;;3.59;66.51
71109;BME280;59614;51.012;-1.648;2023-03-05T10:11:22;101264.75;;;3.75;65.81
71109;BME280;59614;51.012;-1.648;2023-03-05T10:13:51;101261.81;;;3.63;65.35
71109;BME280;59614;51.012;-1.648;2023-03-05T10:16:46;101259.88;;;3.54;65.22
71109;BME280;59614;51.012;-1.648;2023-03-05T10:21:45;101257.06;;;3.81;65.34
71109;BME280;59614;51.012;-1.648;2023-03-05T10:27:26;101243.72;;;3.69;65.26
71109;BME280;59614;51.012;-1.648;2023-03-05T10:43:41;101191.94;;;5.15;60.83
71109;BME280;59614;51.012;-1.648;2023-03-05T10:46:19;101173.56;;;5.64;60.25
71109;BME280;59614;51.012;-1.648;2023-03-05T10:48:52;101171.63;;;5.01;58.93
71109;BME280;59614;51.012;-1.648;2023-03-05T10:54:17;101175.09;;;6.06;57.15
71109;BME280;59614;51.012;-1.648;2023-03-05T10:56:49;101164.00;;;5.66;58.20
71109;BME280;59614;51.012;-1.648;2023-03-05T10:59:15;101166.38;;;5.52;57.58
71109;BME280;59614;51.012;-1.648;2023-03-05T11:01:40;101159.63;;;5.13;59.25
71109;BME280;59614;51.012;-1.648;2023-03-05T11:04:22;101153.69;;;5.23;58.83
71109;BME280;59614;51.012;-1.648;2023-03-05T11:06:49;101152.81;;;5.78;58.55
71109;BME280;59614;51.012;-1.648;2023-03-05T11:09:17;101151.88;;;5.74;57.84
71109;BME280;59614;51.012;-1.648;2023-03-05T11:14:31;101139.06;;;5.36;58.51
71109;BME280;59614;51.012;-1.648;2023-03-05T11:17:03;101129.63;;;6.04;56.70
71109;BME280;59614;51.012;-1.648;2023-03-05T11:19:46;101125.72;;;6.42;55.23
71109;BME280;59614;51.012;-1.648;2023-03-05T11:22:18;101117.66;;;6.23;55.73
71109;BME280;59614;51.012;-1.648;2023-03-05T11:27:34;101101.72;;;6.85;56.39
71109;BME280;59614;51.012;-1.648;2023-03-05T11:30:01;101112.97;;;7.76;54.83
71109;BME280;59614;51.012;-1.648;2023-03-05T11:32:28;101106.88;;;7.85;53.02
71109;BME280;59614;51.012;-1.648;2023-03-05T11:34:55;101109.84;;;6.25;55.34
71109;BME280;59614;51.012;-1.648;2023-03-05T11:37:30;101093.81;;;6.80;55.14
71109;BME280;59614;51.012;-1.648;2023-03-05T11:40:21;101097.50;;;6.98;55.24
71109;BME280;59614;51.012;-1.648;2023-03-05T11:42:55;101090.25;;;6.73;53.27
71109;BME280;59614;51.012;-1.648;2023-03-05T11:45:23;101088.06;;;7.24;54.79
71109;BME280;59614;51.012;-1.648;2023-03-05T11:47:59;101079.66;;;7.72;54.51
71109;BME280;59614;51.012;-1.648;2023-03-05T11:50:32;101073.53;;;7.75;52.77
71109;BME280;59614;51.012;-1.648;2023-03-05T11:53:01;101070.88;;;7.70;53.44
71109;BME280;59614;51.012;-1.648;2023-03-05T11:58:29;101067.03;;;7.21;52.40
71109;BME280;59614;51.012;-1.648;2023-03-05T12:00:56;101066.88;;;7.00;53.48
71109;BME280;59614;51.012;-1.648;2023-03-05T12:03:24;101061.00;;;7.30;54.35
71109;BME280;59614;51.012;-1.648;2023-03-05T12:06:02;101057.88;;;8.01;54.10
71109;BME280;59614;51.012;-1.648;2023-03-05T12:08:34;101048.38;;;8.46;53.59
71109;BME280;59614;51.012;-1.648;2023-03-05T12:11:06;101045.75;;;8.35;52.57
71109;BME280;59614;51.012;-1.648;2023-03-05T12:13:36;101041.47;;;8.83;52.07
71109;BME280;59614;51.012;-1.648;2023-03-05T12:23:52;101022.16;;;8.59;51.40
71109;BME280;59614;51.012;-1.648;2023-03-05T12:32:00;101007.25;;;8.61;50.35
71109;BME280;59614;51.012;-1.648;2023-03-05T12:47:41;100977.41;;;8.80;52.11
71109;BME280;59614;51.012;-1.648;2023-03-05T12:52:55;100964.22;;;8.40;51.81
71109;BME280;59614;51.012;-1.648;2023-03-05T12:55:29;100971.28;;;8.63;52.66
71109;BME280;59614;51.012;-1.648;2023-03-05T12:58:02;100966.88;;;8.63;53.30
71109;BME280;59614;51.012;-1.648;2023-03-05T13:00:50;100962.50;;;8.61;52.77
71109;BME280;59614;51.012;-1.648;2023-03-05T13:03:21;100959.00;;;8.53;53.30
71109;BME280;59614;51.012;-1.648;2023-03-05T13:05:50;100942.28;;;8.33;53.09
71109;BME280;59614;51.012;-1.648;2023-03-05T13:08:29;100936.16;;;8.36;52.54
71109;BME280;59614;51.012;-1.648;2023-03-05T13:11:05;100926.41;;;7.79;53.25
71109;BME280;59614;51.012;-1.648;2023-03-05T13:13:35;100925.59;;;8.05;54.06
71109;BME280;59614;51.012;-1.648;2023-03-05T13:16:01;100915.09;;;8.27;54.33
71109;BME280;59614;51.012;-1.648;2023-03-05T13:18:31;100912.44;;;8.05;53.56
71109;BME280;59614;51.012;-1.648;2023-03-05T13:21:38;100908.09;;;8.38;53.27
71109;BME280;59614;51.012;-1.648;2023-03-05T13:23:58;100912.53;;;8.59;52.50
71109;BME280;59614;51.012;-1.648;2023-03-05T13:26:46;100907.25;;;8.50;53.81
71109;BME280;59614;51.012;-1.648;2023-03-05T13:31:48;100895.81;;;8.29;54.20
71109;BME280;59614;51.012;-1.648;2023-03-05T13:34:23;100894.13;;;8.55;53.47
71109;BME280;59614;51.012;-1.648;2023-03-05T13:37:00;100892.31;;;8.30;54.40
71109;BME280;59614;51.012;-1.648;2023-03-05T13:39:31;100882.66;;;8.20;54.70
71109;BME280;59614;51.012;-1.648;2023-03-05T13:42:01;100885.28;;;8.25;53.27
71109;BME280;59614;51.012;-1.648;2023-03-05T13:44:27;100876.41;;;7.51;54.55
71109;BME280;59614;51.012;-1.648;2023-03-05T13:47:27;100876.50;;;7.90;55.93
71109;BME280;59614;51.012;-1.648;2023-03-05T13:50:01;100861.59;;;7.81;55.94
71109;BME280;59614;51.012;-1.648;2023-03-05T13:52:33;100868.53;;;7.61;55.23
71109;BME280;59614;51.012;-1.648;2023-03-05T13:55:01;100856.22;;;7.44;56.52
71109;BME280;59614;51.012;-1.648;2023-03-05T13:59:57;100849.13;;;7.17;57.14
71109;BME280;59614;51.012;-1.648;2023-03-05T14:02:24;100847.44;;;7.31;56.96
71109;BME280;59614;51.012;-1.648;2023-03-05T14:04:51;100847.56;;;7.70;56.77
71109;BME280;59614;51.012;-1.648;2023-03-05T14:09:55;100845.81;;;7.72;56.31
71109;BME280;59614;51.012;-1.648;2023-03-05T14:14:56;100830.84;;;7.40;56.90
71109;BME280;59614;51.012;-1.648;2023-03-05T14:17:40;100830.91;;;7.68;56.25
71109;BME280;59614;51.012;-1.648;2023-03-05T14:22:46;100822.19;;;7.87;56.75
71109;BME280;59614;51.012;-1.648;2023-03-05T14:27:55;100820.44;;;8.00;56.84